Darstellungsparameter: Aktuell verwendete Einstellungen:
Skalierung der Graphiken ... ?
xyx+y,   Skalierungsfaktor:      Skalierung: Modus: x, Faktor: 1
Darstellungszeitraum ... ?
Vom - - bis: - -   Zeitraum: 08.06.2018 - 07.06.2019
Min/Max/Avg-Anzeige ... ?
Zeige MMA aktuell
Zeige MMA Monat
Zeige MMA alles
Zeige --A aktuell
Zeige --A Monat
Zeige --A alles
Keine MMA-Anzeige
MMA:
Keine MMA-Graphiken
MMA-Basis: 08.06.2018 - 07.06.2019
Quicknavigation für Darstellung... ?
Tage:      1T, 2T, 3T, 5T -1T -2T -3T -5T +1T +2T +3T +5T
Wochen: 1W, 2W, 3W -1W -2W -3W +1W +2W +3W
Monate: 1M, 3M, 6M -1M -3M -6M +1M +3M +6M
Jahre:    1J, 3J, 5J, 10J -1J -3J -5J -10J +1J +3J +5J +10J
Nutze für die Darstellung ... ?
Originaldaten oder ...
Mittelwerte Minima Maxima auf...
Stundenbasis Tagesbasis Wochenbasis
Monatsbasis Jahresbasis      Datenbasis: Mittelwerte auf Tagesbasis
Darstellen als:
Statistik (Auto) Statistik J:M      Darstellung:
Zur Graphik,    zurück zur Übersicht aller Sensoren.
 
Tabellarische Datenbersicht: ?
 
Sensor: Nr:Datum:Temp:Abs-Feuchte:Windchill:Wind:
Aussen-T/F 1 08-06-2018 00:00:00 20.94375 C 15.38 g/m*3 20.94 C 4.05243 km/h
2 09-06-2018 00:00:00 21.9125 C 16.22 g/m*3 21.91 C 3.81424 km/h
3 10-06-2018 00:00:00 21.38239 C 16.14 g/m*3 21.38 C 2.36972 km/h
4 11-06-2018 00:00:00 19.19444 C 15.41 g/m*3 19.19 C 1.45208 km/h
5 12-06-2018 00:00:00 16.41979 C 12.62 g/m*3 16.42 C 3.10035 km/h
6 13-06-2018 00:00:00 14.8941 C 10.14 g/m*3 14.89 C 5.97188 km/h
7 14-06-2018 00:00:00 14.94132 C 10.31 g/m*3 14.94 C 3.65938 km/h
8 15-06-2018 00:00:00 17.84236 C 13.39 g/m*3 17.84 C 1.08993 km/h
9 16-06-2018 00:00:00 19.99306 C 13.59 g/m*3 19.99 C 2.24653 km/h
10 17-06-2018 00:00:00 17.94167 C 11.51 g/m*3 17.94 C 5.17674 km/h
11 18-06-2018 00:00:00 17.81667 C 11.85 g/m*3 17.82 C 4.87361 km/h
12 19-06-2018 00:00:00 18.89201 C 13.7 g/m*3 18.89 C 2.72743 km/h
13 20-06-2018 00:00:00 23.07639 C 14.86 g/m*3 23.08 C 2.81944 km/h
14 21-06-2018 00:00:00 17.92639 C 10.62 g/m*3 17.93 C 10.65278 km/h
15 22-06-2018 00:00:00 13.74097 C 8.13 g/m*3 13.74 C 9.82257 km/h
16 23-06-2018 00:00:00 13.76424 C 9.09 g/m*3 13.76 C 6.13715 km/h
17 24-06-2018 00:00:00 15.88264 C 9.85 g/m*3 15.88 C 6.78854 km/h
18 25-06-2018 00:00:00 17.09201 C 11.37 g/m*3 17.09 C 6.07222 km/h
19 26-06-2018 00:00:00 17.67396 C 11.25 g/m*3 17.67 C 5.95694 km/h
20 27-06-2018 00:00:00 19.15694 C 11.13 g/m*3 19.16 C 4.64965 km/h
21 28-06-2018 00:00:00 20.71076 C 11.02 g/m*3 20.71 C 5.60243 km/h
22 29-06-2018 00:00:00 24.11424 C 12.27 g/m*3 24.11 C 4.67813 km/h
23 30-06-2018 00:00:00 22.06215 C 11.09 g/m*3 22.06 C 6.23715 km/h
24 01-07-2018 00:00:00 20.86597 C 7.77 g/m*3 20.87 C 8.82986 km/h
25 02-07-2018 00:00:00 20.44792 C 8.16 g/m*3 20.45 C 6.0309 km/h
Sensor: Nr:Datum:Temp:Abs-Feuchte:Windchill:Wind:
Aussen-T/F 26 03-07-2018 00:00:00 20.73299 C 9.04 g/m*3 20.73 C 3.5059 km/h
27 04-07-2018 00:00:00 18.84167 C 13.04 g/m*3 18.84 C 1.27917 km/h
28 05-07-2018 00:00:00 19.41111 C 14.79 g/m*3 19.41 C 3.39375 km/h
29 06-07-2018 00:00:00 20.03056 C 13.11 g/m*3 20.03 C 6.24271 km/h
30 07-07-2018 00:00:00 20.66701 C 12.08 g/m*3 20.67 C 5.14271 km/h
31 08-07-2018 00:00:00 19.71181 C 9.91 g/m*3 19.71 C 6.18611 km/h
32 09-07-2018 00:00:00 19.32361 C 11.18 g/m*3 19.32 C 6.80556 km/h
33 10-07-2018 00:00:00 17.13715 C 10.66 g/m*3 17.14 C 7.72882 km/h
34 11-07-2018 00:00:00 16.10729 C 11.28 g/m*3 16.11 C 3.98125 km/h
35 12-07-2018 00:00:00 19.59688 C 13.57 g/m*3 19.6 C 3.14028 km/h
36 13-07-2018 00:00:00 19.72042 C 13.16 g/m*3 19.72 C 2.14155 km/h
37 14-07-2018 00:00:00 21.51493 C 12.82 g/m*3 21.51 C 3.57118 km/h
38 15-07-2018 00:00:00 21.63021 C 12.17 g/m*3 21.63 C 3.4066 km/h
39 16-07-2018 00:00:00 22.30868 C 12.16 g/m*3 22.31 C 3.51597 km/h
40 17-07-2018 00:00:00 21.01771 C 12.08 g/m*3 21.02 C 4.44653 km/h
41 18-07-2018 00:00:00 20.29479 C 11.58 g/m*3 20.29 C 4.925 km/h
42 19-07-2018 00:00:00 20.92431 C 11.04 g/m*3 20.92 C 3.30521 km/h
43 20-07-2018 00:00:00 21.5559 C 11.66 g/m*3 21.56 C 2.28993 km/h
44 21-07-2018 00:00:00 20.6125 C 13.86 g/m*3 20.61 C 3.49583 km/h
45 22-07-2018 00:00:00 21.61458 C 13.3 g/m*3 21.61 C 4.60347 km/h
46 23-07-2018 00:00:00 22.37917 C 13.31 g/m*3 22.38 C 3.60694 km/h
47 24-07-2018 00:00:00 23.70278 C 13.64 g/m*3 23.7 C 2.55278 km/h
48 25-07-2018 00:00:00 25.50069 C 13.57 g/m*3 25.5 C 3.23056 km/h
49 26-07-2018 00:00:00 27.18785 C 14.1 g/m*3 27.19 C 3.77708 km/h
50 27-07-2018 00:00:00 26.11146 C 12.37 g/m*3 26.11 C 3.51493 km/h
Sensor: Nr:Datum:Temp:Abs-Feuchte:Windchill:Wind:
Aussen-T/F 51 28-07-2018 00:00:00 21.97743 C 14.81 g/m*3 21.98 C 3.04097 km/h
52 29-07-2018 00:00:00 23.50521 C 13.97 g/m*3 23.51 C 3.90382 km/h
53 30-07-2018 00:00:00 24.29931 C 14.26 g/m*3 24.3 C 1.89028 km/h
54 31-07-2018 00:00:00 25.46875 C 14.65 g/m*3 25.47 C 4.19306 km/h
55 01-08-2018 00:00:00 20.74271 C 15.79 g/m*3 20.74 C 0.31111 km/h
56 02-08-2018 00:00:00 23.73056 C 15.9 g/m*3 23.73 C 1.25243 km/h
57 03-08-2018 00:00:00 26.4684 C 15.25 g/m*3 26.47 C 1.16632 km/h
58 04-08-2018 00:00:00 26.38714 C 14.42 g/m*3 26.39 C 3.28821 km/h
59 05-08-2018 00:00:00 24.70486 C 13.5 g/m*3 24.7 C 6.56667 km/h
60 06-08-2018 00:00:00 24.16944 C 12.66 g/m*3 24.17 C 2.99236 km/h
61 07-08-2018 00:00:00 26.73646 C 14.08 g/m*3 26.74 C 3.08958 km/h
62 08-08-2018 00:00:00 25.29618 C 14.35 g/m*3 25.3 C 7.74653 km/h
63 09-08-2018 00:00:00 20.57778 C 14.79 g/m*3 20.58 C 3.725 km/h
64 10-08-2018 00:00:00 18.35486 C 10.26 g/m*3 18.35 C 9.11354 km/h
65 11-08-2018 00:00:00 18.37083 C 9.4 g/m*3 18.37 C 5.41806 km/h
66 12-08-2018 00:00:00 18.15451 C 9.78 g/m*3 18.15 C 2.11215 km/h
67 13-08-2018 00:00:00 17.68854 C 12.35 g/m*3 17.69 C 4.30764 km/h
68 14-08-2018 00:00:00 18.53958 C 13.43 g/m*3 18.54 C 5.0875 km/h
69 15-08-2018 00:00:00 19.375 C 13.2 g/m*3 19.38 C 1.80694 km/h
70 16-08-2018 00:00:00 20.74444 C 12.86 g/m*3 20.74 C 1.88924 km/h
71 17-08-2018 00:00:00 19.75903 C 13.06 g/m*3 19.76 C 6.20903 km/h
72 18-08-2018 00:00:00 18.88785 C 11.13 g/m*3 18.89 C 2.50139 km/h
73 19-08-2018 00:00:00 20.30521 C 11.86 g/m*3 20.31 C 3.60174 km/h
74 20-08-2018 00:00:00 20.84444 C 13.36 g/m*3 20.84 C 3.3066 km/h
75 21-08-2018 00:00:00 21.96979 C 13.69 g/m*3 21.97 C 1.92014 km/h
Sensor: Nr:Datum:Temp:Abs-Feuchte:Windchill:Wind:
Aussen-T/F 76 22-08-2018 00:00:00 23.24757 C 13.71 g/m*3 23.25 C 3.28229 km/h
77 23-08-2018 00:00:00 22.88681 C 14.1 g/m*3 22.89 C 4.65382 km/h
78 24-08-2018 00:00:00 19.03368 C 10.7 g/m*3 19.03 C 6.54271 km/h
79 25-08-2018 00:00:00 14.525 C 8.7 g/m*3 14.53 C 5.44653 km/h
80 26-08-2018 00:00:00 13.80556 C 8.08 g/m*3 13.81 C 3.69514 km/h
81 27-08-2018 00:00:00 18.12604 C 10.86 g/m*3 18.13 C 7.71493 km/h
82 28-08-2018 00:00:00 18.12917 C 10.47 g/m*3 18.13 C 2.88611 km/h
83 29-08-2018 00:00:00 17.15556 C 11.71 g/m*3 17.16 C 1.31146 km/h
84 30-08-2018 00:00:00 17.22778 C 11.01 g/m*3 17.23 C 7.1434 km/h
85 31-08-2018 00:00:00 15.05521 C 9.3 g/m*3 15.06 C 2.95764 km/h
86 01-09-2018 00:00:00 14.30833 C 8.49 g/m*3 14.31 C 3.17847 km/h
87 02-09-2018 00:00:00 14.27188 C 9.39 g/m*3 14.27 C 1.04236 km/h
88 03-09-2018 00:00:00 18.05417 C 12.41 g/m*3 18.05 C 1.52118 km/h
89 04-09-2018 00:00:00 20.01736 C 13.73 g/m*3 20.02 C 1.27465 km/h
90 05-09-2018 00:00:00 20.91701 C 13.37 g/m*3 20.92 C 0.92604 km/h
91 06-09-2018 00:00:00 18.07014 C 13.53 g/m*3 18.07 C 2.5934 km/h
92 07-09-2018 00:00:00 15.72639 C 11.65 g/m*3 15.73 C 4.62847 km/h
93 08-09-2018 00:00:00 13.53889 C 8.97 g/m*3 13.54 C 3.57882 km/h
94 09-09-2018 00:00:00 16.94236 C 10.19 g/m*3 16.94 C 1.94688 km/h
95 10-09-2018 00:00:00 17.5 C 10.7 g/m*3 17.5 C 3.28403 km/h
96 11-09-2018 00:00:00 18.85868 C 11.38 g/m*3 18.86 C 5.47639 km/h
97 12-09-2018 00:00:00 19.08646 C 11.68 g/m*3 19.09 C 4.25174 km/h
98 13-09-2018 00:00:00 16.3625 C 11.93 g/m*3 16.36 C 3.12465 km/h
99 14-09-2018 00:00:00 16.95174 C 10.29 g/m*3 16.95 C 2.13403 km/h
100 15-09-2018 00:00:00 15.14028 C 9.1 g/m*3 15.14 C 1.64236 km/h
Sensor: Nr:Datum:Temp:Abs-Feuchte:Windchill:Wind:
Aussen-T/F 101 16-09-2018 00:00:00 14.7184 C 9 g/m*3 14.72 C 2.22708 km/h
102 17-09-2018 00:00:00 16.79306 C 9.83 g/m*3 16.79 C 0.61667 km/h
103 18-09-2018 00:00:00 19.05208 C 11.48 g/m*3 19.05 C 3.21701 km/h
104 19-09-2018 00:00:00 20.67951 C 12.9 g/m*3 20.68 C 5.20417 km/h
105 20-09-2018 00:00:00 19.17153 C 11.91 g/m*3 19.17 C 4.2684 km/h
106 21-09-2018 00:00:00 15.93472 C 10.69 g/m*3 15.93 C 6.0309 km/h
107 22-09-2018 00:00:00 12.7566 C 8.63 g/m*3 12.76 C 6.55625 km/h
108 23-09-2018 00:00:00 12.33056 C 10.27 g/m*3 12.33 C 5.07639 km/h
109 24-09-2018 00:00:00 9.92396 C 8.02 g/m*3 9.92 C 4.49514 km/h
110 25-09-2018 00:00:00 8.38785 C 7.27 g/m*3 8.39 C 1.4934 km/h
111 26-09-2018 00:00:00 8.82917 C 7.21 g/m*3 8.83 C 0.35556 km/h
112 27-09-2018 00:00:00 11.32708 C 8.57 g/m*3 11.33 C 0.08333 km/h
113 28-09-2018 00:00:00 10.18526 C 8.66 g/m*3 10.19 C 2.01614 km/h
114 29-09-2018 00:00:00 8.2941 C 6.89 g/m*3 8.29 C 1.77118 km/h
115 30-09-2018 00:00:00 7.9427 C 6.81 g/m*3 7.94 C 0.31317 km/h
116 01-10-2018 00:00:00 9.71701 C 7.5 g/m*3 9.35 C 5.29028 km/h
117 02-10-2018 00:00:00 9.17604 C 7.81 g/m*3 7.65 C 10.00174 km/h
118 03-10-2018 00:00:00 12.2809 C 8.9 g/m*3 12.28 C 4.68264 km/h
119 04-10-2018 00:00:00 9.78056 C 8.08 g/m*3 9.78 C 0.8191 km/h
120 05-10-2018 00:00:00 10.63021 C 8.63 g/m*3 10.63 C 0.50694 km/h
121 06-10-2018 00:00:00 12.7691 C 9.95 g/m*3 12.77 C 0.41389 km/h
122 07-10-2018 00:00:00 13.00243 C 10.1 g/m*3 13 C 2.18333 km/h
123 08-10-2018 00:00:00 10.50347 C 8.59 g/m*3 10.5 C 0 km/h
124 09-10-2018 00:00:00 11.75035 C 9.59 g/m*3 11.75 C 0 km/h
125 10-10-2018 00:00:00 13.21285 C 10.38 g/m*3 13.21 C 0.62569 km/h
Sensor: Nr:Datum:Temp:Abs-Feuchte:Windchill:Wind:
Aussen-T/F 126 11-10-2018 00:00:00 14.21701 C 10.79 g/m*3 14.22 C 0.79722 km/h
127 12-10-2018 00:00:00 15.87882 C 11.67 g/m*3 15.88 C 0.89271 km/h
128 13-10-2018 00:00:00 15.57986 C 11.19 g/m*3 15.58 C 0.48924 km/h
129 14-10-2018 00:00:00 14.79965 C 10.52 g/m*3 14.8 C 0.86979 km/h
130 15-10-2018 00:00:00 13.825 C 10.09 g/m*3 13.83 C 0 km/h
131 16-10-2018 00:00:00 12.87292 C 9.73 g/m*3 12.87 C 0 km/h
132 17-10-2018 00:00:00 12.82847 C 9.91 g/m*3 12.83 C 0.00556 km/h
133 18-10-2018 00:00:00 14.04618 C 10.7 g/m*3 14.05 C 1.79028 km/h
134 19-10-2018 00:00:00 12.08785 C 9.42 g/m*3 12.09 C 0.61667 km/h
135 20-10-2018 00:00:00 11.03542 C 8.65 g/m*3 11.04 C 1.86285 km/h
136 21-10-2018 00:00:00 7.3066 C 7.23 g/m*3 7.31 C 0.30556 km/h
137 22-10-2018 00:00:00 7.67014 C 7.33 g/m*3 7.67 C 0.60174 km/h
138 23-10-2018 00:00:00 9.04306 C 7.49 g/m*3 8.06 C 7.2 km/h
139 24-10-2018 00:00:00 14.07604 C 10.46 g/m*3 14.08 C 10.49757 km/h
140 25-10-2018 00:00:00 12.94722 C 9.42 g/m*3 12.95 C 3.93576 km/h
141 26-10-2018 00:00:00 10.21354 C 7.7 g/m*3 10.21 C 4.89549 km/h
142 27-10-2018 00:00:00 6.27118 C 6.72 g/m*3 6.27 C 1.42118 km/h
143 28-10-2018 00:00:00 5.67778 C 5.91 g/m*3 4.13 C 7.2566 km/h
144 29-10-2018 00:00:00 6.43264 C 6.33 g/m*3 4.79 C 8.1059 km/h
145 30-10-2018 00:00:00 6.2809 C 6.77 g/m*3 4.51 C 8.54444 km/h
146 31-10-2018 00:00:00 7.45382 C 6.93 g/m*3 7.45 C 1.11215 km/h
147 01-11-2018 00:00:00 6.13194 C 6.96 g/m*3 6.13 C 0.48924 km/h
148 02-11-2018 00:00:00 8.86597 C 8.22 g/m*3 8.87 C 0.78368 km/h
149 03-11-2018 00:00:00 3.50521 C 5.93 g/m*3 3.51 C 0.67222 km/h
150 04-11-2018 00:00:00 6.86007 C 7.31 g/m*3 6.86 C 0.38333 km/h
Sensor: Nr:Datum:Temp:Abs-Feuchte:Windchill:Wind:
Aussen-T/F 151 05-11-2018 00:00:00 10.39097 C 8.87 g/m*3 10.39 C 0.67361 km/h
152 06-11-2018 00:00:00 8.41806 C 8.13 g/m*3 8.42 C 0.3066 km/h
153 07-11-2018 00:00:00 9.32118 C 8.32 g/m*3 9.32 C 0.58542 km/h
154 08-11-2018 00:00:00 10.425 C 8.6 g/m*3 10.43 C 0.92951 km/h
155 09-11-2018 00:00:00 9.62604 C 8.53 g/m*3 9.63 C 0.3 km/h
156 10-11-2018 00:00:00 11.90347 C 9.55 g/m*3 11.9 C 3.35139 km/h
157 11-11-2018 00:00:00 12.04618 C 9.68 g/m*3 12.05 C 2.21146 km/h
158 12-11-2018 00:00:00 13.70069 C 10.66 g/m*3 13.7 C 1.59861 km/h
159 13-11-2018 00:00:00 10.46076 C 8.95 g/m*3 10.46 C 4.08542 km/h
160 14-11-2018 00:00:00 6.18264 C 7.1 g/m*3 6.18 C 0.64444 km/h
161 15-11-2018 00:00:00 6.9816 C 7.09 g/m*3 6.98 C 2.73681 km/h
162 16-11-2018 00:00:00 5.92778 C 6.49 g/m*3 5.93 C 1.62882 km/h
163 17-11-2018 00:00:00 2.75417 C 5.19 g/m*3 2.75 C 3.52917 km/h
164 18-11-2018 00:00:00 1.8566 C 4.39 g/m*3 1.86 C 2.95833 km/h
165 19-11-2018 00:00:00 3.57014 C 5.02 g/m*3 1.97 C 6.32674 km/h
166 20-11-2018 00:00:00 3.50972 C 4.93 g/m*3 1.56 C 7.37153 km/h
167 21-11-2018 00:00:00 2.50312 C 5.1 g/m*3 2.5 C 2.6941 km/h
168 22-11-2018 00:00:00 2.91458 C 5.21 g/m*3 2.91 C 1.31632 km/h
169 23-11-2018 00:00:00 0.10868 C 4.66 g/m*3 0.11 C 0.55 km/h
170 24-11-2018 00:00:00 4.74792 C 6.43 g/m*3 4.75 C 0.55556 km/h
171 25-11-2018 00:00:00 5.98785 C 6.95 g/m*3 5.99 C 0.51111 km/h
172 26-11-2018 00:00:00 6.65625 C 6.66 g/m*3 6.66 C 1.89167 km/h
173 27-11-2018 00:00:00 4.12465 C 5.37 g/m*3 4.12 C 1.54063 km/h
174 28-11-2018 00:00:00 3.7 C 5.71 g/m*3 3.7 C 1.97951 km/h
175 29-11-2018 00:00:00 5.67875 C 6.59 g/m*3 5.68 C 3.46551 km/h
Sensor: Nr:Datum:Temp:Abs-Feuchte:Windchill:Wind:
Aussen-T/F 176 30-11-2018 00:00:00 7.44514 C 7.55 g/m*3 7.45 C 0.94549 km/h
177 01-12-2018 00:00:00 7.48993 C 7.33 g/m*3 7.49 C 2.10972 km/h
178 02-12-2018 00:00:00 11.28056 C 9.48 g/m*3 11.28 C 5.58958 km/h
179 03-12-2018 00:00:00 11.76701 C 10.06 g/m*3 11.77 C 5.55764 km/h
180 04-12-2018 00:00:00 6.48715 C 6.82 g/m*3 6.49 C 3.99167 km/h
181 05-12-2018 00:00:00 3.60729 C 5.96 g/m*3 3.61 C 0.56771 km/h
182 06-12-2018 00:00:00 9.76042 C 8.69 g/m*3 9.45 C 5.09965 km/h
183 07-12-2018 00:00:00 11.22882 C 8.8 g/m*3 11.23 C 13.66111 km/h
184 08-12-2018 00:00:00 7.97361 C 7.3 g/m*3 5.22 C 16.51667 km/h
185 09-12-2018 00:00:00 8.02544 C 7.29 g/m*3 5.82 C 12.63659 km/h
186 10-12-2018 00:00:00 4.96771 C 6.19 g/m*3 3.14 C 7.82257 km/h
187 11-12-2018 00:00:00 3.84375 C 5.9 g/m*3 3.84 C 3.11181 km/h
188 12-12-2018 00:00:00 2.70801 C 5.57 g/m*3 2.71 C 0.53519 km/h
189 13-12-2018 00:00:00 1.36181 C 4.65 g/m*3 1.36 C 2.34931 km/h
190 14-12-2018 00:00:00 1.15521 C 4.06 g/m*3 1.16 C 2.10382 km/h
191 15-12-2018 00:00:00 0.62683 C 3.98 g/m*3 0.63 C 2.64599 km/h
192 16-12-2018 00:00:00 0.77743 C 4.63 g/m*3 0.78 C 1.95799 km/h
193 17-12-2018 00:00:00 4.19722 C 6.11 g/m*3 4.2 C 3.82917 km/h
194 18-12-2018 00:00:00 5.08229 C 6.17 g/m*3 5.08 C 4.64028 km/h
195 19-12-2018 00:00:00 6.54495 C 6.68 g/m*3 6.54 C 2.72125 km/h
196 20-12-2018 00:00:00 7.58741 C 7.22 g/m*3 6.6 C 6.32797 km/h
197 21-12-2018 00:00:00 10.78507 C 8.54 g/m*3 9.26 C 12.03333 km/h
198 22-12-2018 00:00:00 9.94266 C 8.04 g/m*3 8.86 C 8.38147 km/h
199 23-12-2018 00:00:00 8.60868 C 8.05 g/m*3 7.96 C 5.68715 km/h
200 24-12-2018 00:00:00 4.88924 C 6.13 g/m*3 3.68 C 5.76146 km/h
Sensor: Nr:Datum:Temp:Abs-Feuchte:Windchill:Wind:
Aussen-T/F 201 25-12-2018 00:00:00 1.85208 C 5.13 g/m*3 1.85 C 1.84618 km/h
202 26-12-2018 00:00:00 -0.91736 C 4.34 g/m*3 -0.92 C 1.68507 km/h
203 27-12-2018 00:00:00 0.08125 C 4.67 g/m*3 0.08 C 0.02778 km/h
204 28-12-2018 00:00:00 0.225 C 4.67 g/m*3 0.23 C 2.8559 km/h
205 29-12-2018 00:00:00 2.70972 C 5.44 g/m*3 0.67 C 7.23681 km/h
206 30-12-2018 00:00:00 7.50313 C 7 g/m*3 6.22 C 7.39896 km/h
207 31-12-2018 00:00:00 7.59271 C 7.76 g/m*3 7.59 C 2.89201 km/h
208 01-01-2019 00:00:00 7.09271 C 7.18 g/m*3 5.53 C 8.26563 km/h
209 02-01-2019 00:00:00 3.70104 C 5.16 g/m*3 1.4 C 8.7934 km/h
210 03-01-2019 00:00:00 2.03715 C 5.18 g/m*3 2.04 C 1.94688 km/h
211 04-01-2019 00:00:00 3.13785 C 5.52 g/m*3 3.14 C 4.59583 km/h
212 05-01-2019 00:00:00 5.92632 C 6.75 g/m*3 3.71 C 10.2814 km/h
213 06-01-2019 00:00:00 5.76944 C 6.56 g/m*3 4.38 C 6.73993 km/h
214 07-01-2019 00:00:00 5.50417 C 6.31 g/m*3 4.25 C 6.15417 km/h
215 08-01-2019 00:00:00 6.62222 C 6.5 g/m*3 3.51 C 16.75417 km/h
216 09-01-2019 00:00:00 3.90486 C 5.3 g/m*3 0.56 C 14.00139 km/h
217 10-01-2019 00:00:00 2.05694 C 4.67 g/m*3 0.72 C 5.05833 km/h
218 11-01-2019 00:00:00 2.82847 C 5.57 g/m*3 2.83 C 4.89375 km/h
219 12-01-2019 00:00:00 5.96702 C 6.73 g/m*3 3.93 C 9.4367 km/h
220 13-01-2019 00:00:00 7.73715 C 7.65 g/m*3 5.94 C 9.92257 km/h
221 14-01-2019 00:00:00 5.07083 C 6.11 g/m*3 2.82 C 9.66493 km/h
222 15-01-2019 00:00:00 4.78854 C 5.97 g/m*3 2.87 C 8.06424 km/h
223 16-01-2019 00:00:00 5.27187 C 5.91 g/m*3 3.48 C 7.91701 km/h
224 17-01-2019 00:00:00 5.0066 C 5.94 g/m*3 2.23 C 12.16181 km/h
225 18-01-2019 00:00:00 0.77569 C 4.7 g/m*3 0.78 C 1.61667 km/h
Sensor: Nr:Datum:Temp:Abs-Feuchte:Windchill:Wind:
Aussen-T/F 226 19-01-2019 00:00:00 -2.72396 C 3.74 g/m*3 -2.72 C 1.07778 km/h
227 20-01-2019 00:00:00 -4.97187 C 3.17 g/m*3 -4.97 C 0.05556 km/h
228 21-01-2019 00:00:00 -6.20972 C 2.93 g/m*3 -6.21 C 0.21111 km/h
229 22-01-2019 00:00:00 -4.96667 C 3.14 g/m*3 -4.97 C 0.78403 km/h
230 23-01-2019 00:00:00 -1.57743 C 3.88 g/m*3 -1.58 C 1.41597 km/h
231 24-01-2019 00:00:00 -1.91736 C 3.56 g/m*3 -1.92 C 2.39757 km/h
232 25-01-2019 00:00:00 0.28403 C 4.35 g/m*3 -2.25 C 7.52917 km/h
233 26-01-2019 00:00:00 4.48229 C 6.06 g/m*3 1.72 C 11.54896 km/h
234 27-01-2019 00:00:00 5.94583 C 6.52 g/m*3 4.45 C 7.2125 km/h
235 28-01-2019 00:00:00 3.17118 C 5.47 g/m*3 0.05 C 11.95764 km/h
236 29-01-2019 00:00:00 1.73021 C 4.89 g/m*3 1.73 C 3.30972 km/h
237 30-01-2019 00:00:00 0.45972 C 4.67 g/m*3 0.46 C 2.56042 km/h
238 31-01-2019 00:00:00 -0.09826 C 4.56 g/m*3 -0.1 C 0.61181 km/h
239 01-02-2019 00:00:00 1.74826 C 5.22 g/m*3 1.75 C 2.25729 km/h
240 02-02-2019 00:00:00 2.46701 C 5.56 g/m*3 2.47 C 1.11424 km/h
241 03-02-2019 00:00:00 2.7 C 5.17 g/m*3 0.95 C 6.35208 km/h
242 04-02-2019 00:00:00 1.83229 C 4.78 g/m*3 1.83 C 2.03576 km/h
243 05-02-2019 00:00:00 4.34375 C 5.28 g/m*3 4.34 C 3.16076 km/h
244 06-02-2019 00:00:00 1.17639 C 4.73 g/m*3 1.18 C 1.14826 km/h
245 07-02-2019 00:00:00 5.09549 C 6.02 g/m*3 4 C 5.51563 km/h
246 08-02-2019 00:00:00 7.42604 C 6.65 g/m*3 6.37 C 6.49063 km/h
247 09-02-2019 00:00:00 8.6309 C 6.87 g/m*3 6.27 C 14.69618 km/h
248 10-02-2019 00:00:00 7.96076 C 7.3 g/m*3 5.59 C 13.64931 km/h
249 11-02-2019 00:00:00 4.86736 C 5.83 g/m*3 2.86 C 8.45313 km/h
250 12-02-2019 00:00:00 3.71597 C 5.41 g/m*3 2.47 C 5.38715 km/h
Sensor: Nr:Datum:Temp:Abs-Feuchte:Windchill:Wind:
Aussen-T/F 251 13-02-2019 00:00:00 1.77951 C 5.01 g/m*3 1.78 C 1.55556 km/h
252 14-02-2019 00:00:00 0.77431 C 4.74 g/m*3 0.77 C 0.18889 km/h
253 15-02-2019 00:00:00 2.33854 C 5.08 g/m*3 2.34 C 1.52292 km/h
254 16-02-2019 00:00:00 3.375 C 5.4 g/m*3 3.38 C 1.05 km/h
255 17-02-2019 00:00:00 3.45451 C 5.51 g/m*3 3.45 C 0.85556 km/h
256 18-02-2019 00:00:00 3.69653 C 5.41 g/m*3 3.7 C 0.08889 km/h
257 19-02-2019 00:00:00 5.85868 C 6.31 g/m*3 5.86 C 4.05208 km/h
258 20-02-2019 00:00:00 4.70694 C 5.94 g/m*3 4.71 C 3.82396 km/h
259 21-02-2019 00:00:00 6.3625 C 6.69 g/m*3 6.36 C 1.91701 km/h
260 22-02-2019 00:00:00 9.91111 C 8.23 g/m*3 9.91 C 1.74063 km/h
261 23-02-2019 00:00:00 5.41076 C 5.5 g/m*3 5.41 C 2.82049 km/h
262 24-02-2019 00:00:00 3.39271 C 4.46 g/m*3 3.39 C 1.06285 km/h
263 25-02-2019 00:00:00 5.05139 C 5.05 g/m*3 5.05 C 0.85556 km/h
264 26-02-2019 00:00:00 6.18646 C 5.89 g/m*3 6.19 C 0.7 km/h
265 27-02-2019 00:00:00 6.63576 C 6.02 g/m*3 6.64 C 0.66771 km/h
266 28-02-2019 00:00:00 8.81701 C 6.88 g/m*3 7.56 C 8.26389 km/h
267 01-03-2019 00:00:00 8.12708 C 7.67 g/m*3 7.6 C 5.08299 km/h
268 02-03-2019 00:00:00 8.64236 C 7.33 g/m*3 7.51 C 7.58333 km/h
269 03-03-2019 00:00:00 11.11319 C 8.07 g/m*3 11.11 C 14.64375 km/h
270 04-03-2019 00:00:00 9.71875 C 7.23 g/m*3 7.28 C 17.49583 km/h
271 05-03-2019 00:00:00 6.87396 C 6.27 g/m*3 4.69 C 11.10174 km/h
272 06-03-2019 00:00:00 10.01944 C 7.43 g/m*3 10.02 C 3.02014 km/h
273 07-03-2019 00:00:00 10.20729 C 7.54 g/m*3 8.16 C 15.05764 km/h
274 08-03-2019 00:00:00 8.18854 C 6.62 g/m*3 6.16 C 11.77465 km/h
275 09-03-2019 00:00:00 10.36875 C 7.38 g/m*3 8.07 C 17.70694 km/h
Sensor: Nr:Datum:Temp:Abs-Feuchte:Windchill:Wind:
Aussen-T/F 276 10-03-2019 00:00:00 9.55694 C 7.02 g/m*3 7.36 C 15.05556 km/h
277 11-03-2019 00:00:00 4.7934 C 5.35 g/m*3 2 C 12.03646 km/h
278 12-03-2019 00:00:00 6.61563 C 5.3 g/m*3 5.21 C 7.28958 km/h
279 13-03-2019 00:00:00 6.20382 C 6.09 g/m*3 3.06 C 16.23264 km/h
280 14-03-2019 00:00:00 7.03611 C 6.78 g/m*3 4.51 C 13.30313 km/h
281 15-03-2019 00:00:00 10.13993 C 8.27 g/m*3 8.37 C 12.83368 km/h
282 16-03-2019 00:00:00 10.23472 C 8.16 g/m*3 8.5 C 12.67083 km/h
283 17-03-2019 00:00:00 8.66319 C 6.71 g/m*3 6.38 C 14.17535 km/h
284 18-03-2019 00:00:00 4.96458 C 5.77 g/m*3 3.21 C 7.55799 km/h
285 19-03-2019 00:00:00 3.83715 C 5.06 g/m*3 3.84 C 1.64375 km/h
286 20-03-2019 00:00:00 5.47951 C 5.42 g/m*3 5.48 C 1.55972 km/h
287 21-03-2019 00:00:00 7.53194 C 5.9 g/m*3 7.53 C 2.00347 km/h
288 22-03-2019 00:00:00 9.15799 C 6.43 g/m*3 9.16 C 2.43438 km/h
289 23-03-2019 00:00:00 6.18576 C 6.43 g/m*3 6.19 C 3.01458 km/h
290 24-03-2019 00:00:00 6.4583 C 6.26 g/m*3 6.46 C 4.16421 km/h
291 25-03-2019 00:00:00 5.13299 C 5.9 g/m*3 3.06 C 8.93264 km/h
292 26-03-2019 00:00:00 6.64792 C 6.18 g/m*3 6.65 C 4.81042 km/h
293 27-03-2019 00:00:00 6.81528 C 6.18 g/m*3 6.82 C 2.65556 km/h
294 28-03-2019 00:00:00 7.32535 C 6.47 g/m*3 7.33 C 2.7125 km/h
295 29-03-2019 00:00:00 8.96493 C 6.97 g/m*3 8.96 C 3.02431 km/h
296 30-03-2019 00:00:00 10.50104 C 7.06 g/m*3 10.5 C 3.54861 km/h
297 31-03-2019 00:00:00 10.31594 C 7.68 g/m*3 10.32 C 2.38623 km/h
298 01-04-2019 00:00:00 9.41771 C 6.81 g/m*3 9.42 C 4.33194 km/h
299 02-04-2019 00:00:00 10.74375 C 7.5 g/m*3 10.74 C 3.93194 km/h
300 03-04-2019 00:00:00 8.37083 C 7.36 g/m*3 8.37 C 1.94549 km/h
Sensor: Nr:Datum:Temp:Abs-Feuchte:Windchill:Wind:
Aussen-T/F 301 04-04-2019 00:00:00 6.05799 C 6.79 g/m*3 6.06 C 1.46458 km/h
302 05-04-2019 00:00:00 6.32535 C 6.83 g/m*3 6.33 C 1.74236 km/h
303 06-04-2019 00:00:00 10.20313 C 7.94 g/m*3 10.2 C 2.74479 km/h
304 07-04-2019 00:00:00 12.02083 C 8.01 g/m*3 12.02 C 3.89306 km/h
305 08-04-2019 00:00:00 12.69757 C 9.48 g/m*3 12.7 C 1.27882 km/h
306 09-04-2019 00:00:00 12.23472 C 9.56 g/m*3 12.23 C 1.83854 km/h
307 10-04-2019 00:00:00 10.80035 C 6.51 g/m*3 10.19 C 6.83542 km/h
308 11-04-2019 00:00:00 6.94306 C 4.71 g/m*3 5.69 C 6.93681 km/h
309 12-04-2019 00:00:00 5.01528 C 4.01 g/m*3 3.21 C 7.79861 km/h
310 13-04-2019 00:00:00 3.85556 C 4.76 g/m*3 3.86 C 4.46007 km/h
311 14-04-2019 00:00:00 5.53576 C 5.39 g/m*3 5.54 C 4.95521 km/h
312 15-04-2019 00:00:00 10.42187 C 6.72 g/m*3 9.97 C 5.95938 km/h
313 16-04-2019 00:00:00 11.20417 C 6.8 g/m*3 11.2 C 4.46493 km/h
314 17-04-2019 00:00:00 12.74861 C 9.36 g/m*3 12.75 C 3.09826 km/h
315 18-04-2019 00:00:00 14.16528 C 7.93 g/m*3 14.17 C 5.55069 km/h
316 19-04-2019 00:00:00 15.41285 C 7.41 g/m*3 15.41 C 5.63056 km/h
317 20-04-2019 00:00:00 14.87153 C 7.8 g/m*3 14.87 C 3.90382 km/h
318 21-04-2019 00:00:00 15.62813 C 7.79 g/m*3 15.63 C 3.06354 km/h
319 22-04-2019 00:00:00 14.99375 C 7.63 g/m*3 14.99 C 5.28368 km/h
320 23-04-2019 00:00:00 15.15903 C 7.91 g/m*3 15.16 C 4.94722 km/h
321 24-04-2019 00:00:00 15.11424 C 9.44 g/m*3 15.11 C 4.87222 km/h
322 25-04-2019 00:00:00 13.28785 C 9.06 g/m*3 13.29 C 4.63819 km/h
323 26-04-2019 00:00:00 11.86806 C 8.86 g/m*3 11.87 C 3.58854 km/h
324 27-04-2019 00:00:00 9.34688 C 8.09 g/m*3 9.35 C 3.60451 km/h
325 28-04-2019 00:00:00 8.50208 C 7.09 g/m*3 7.78 C 5.90139 km/h
Sensor: Nr:Datum:Temp:Abs-Feuchte:Windchill:Wind:
Aussen-T/F 326 29-04-2019 00:00:00 8.56736 C 7.24 g/m*3 8.57 C 3.78993 km/h
327 30-04-2019 00:00:00 14.05278 C 8.31 g/m*3 14.05 C 7.74514 km/h
328 01-05-2019 00:00:00 12.7816 C 8.54 g/m*3 12.78 C 3.63056 km/h
329 02-05-2019 00:00:00 11.4566 C 8.27 g/m*3 11.46 C 4.02083 km/h
330 03-05-2019 00:00:00 11.00208 C 7.34 g/m*3 11 C 7.49826 km/h
331 04-05-2019 00:00:00 6.36493 C 6.26 g/m*3 5.1 C 6.63958 km/h
332 05-05-2019 00:00:00 6.67882 C 6.18 g/m*3 5.85 C 5.38264 km/h
333 06-05-2019 00:00:00 7.62465 C 6.22 g/m*3 7.62 C 3.69722 km/h
334 07-05-2019 00:00:00 9.6066 C 6.76 g/m*3 9.61 C 2.54444 km/h
335 08-05-2019 00:00:00 9.41667 C 8.02 g/m*3 9.42 C 1.87639 km/h
336 09-05-2019 00:00:00 11.20938 C 9.02 g/m*3 11.21 C 3.33472 km/h
337 10-05-2019 00:00:00 12.49306 C 8.53 g/m*3 12.49 C 5.40625 km/h
338 11-05-2019 00:00:00 10.05833 C 8.78 g/m*3 10.06 C 3.22396 km/h
339 12-05-2019 00:00:00 9.40625 C 6.58 g/m*3 8.58 C 6.83229 km/h
340 13-05-2019 00:00:00 9.96736 C 5.78 g/m*3 9.46 C 5.88368 km/h
341 14-05-2019 00:00:00 9.58299 C 5.9 g/m*3 9.1 C 5.62465 km/h
342 15-05-2019 00:00:00 9.79896 C 5.66 g/m*3 9.32 C 5.69444 km/h
343 16-05-2019 00:00:00 10.83854 C 6.98 g/m*3 10.84 C 4.89201 km/h
344 17-05-2019 00:00:00 11.60069 C 9.3 g/m*3 11.6 C 2.49271 km/h
345 18-05-2019 00:00:00 14.44306 C 10.6 g/m*3 14.44 C 1.72396 km/h
346 19-05-2019 00:00:00 15.85694 C 11.29 g/m*3 15.86 C 3.36146 km/h
347 20-05-2019 00:00:00 13.90347 C 10.77 g/m*3 13.9 C 5.82431 km/h
348 21-05-2019 00:00:00 12.49722 C 10.23 g/m*3 12.5 C 8.26007 km/h
349 22-05-2019 00:00:00 13.38785 C 9.39 g/m*3 13.39 C 5.53958 km/h
350 23-05-2019 00:00:00 15.11875 C 9.58 g/m*3 15.12 C 2.43056 km/h
Sensor: Nr:Datum:Temp:Abs-Feuchte:Windchill:Wind:
Aussen-T/F 351 24-05-2019 00:00:00 16.93437 C 10.22 g/m*3 16.93 C 2.5066 km/h
352 25-05-2019 00:00:00 15.60035 C 8.97 g/m*3 15.6 C 4.91111 km/h
353 26-05-2019 00:00:00 15.92014 C 10.1 g/m*3 15.92 C 5.11042 km/h
354 27-05-2019 00:00:00 14.98924 C 11.65 g/m*3 14.99 C 1.43229 km/h
355 28-05-2019 00:00:00 13.95729 C 10.24 g/m*3 13.96 C 5.32535 km/h
356 29-05-2019 00:00:00 14.97951 C 8.74 g/m*3 14.98 C 4.30938 km/h
357 30-05-2019 00:00:00 15.62396 C 10.46 g/m*3 15.62 C 4.33958 km/h
358 31-05-2019 00:00:00 19.22674 C 12.25 g/m*3 19.23 C 4.08021 km/h
359 01-06-2019 00:00:00 19.98924 C 12.83 g/m*3 19.99 C 2.98229 km/h
360 02-06-2019 00:00:00 22.09028 C 13.76 g/m*3 22.09 C 2.70833 km/h
361 03-06-2019 00:00:00 20.85625 C 13.34 g/m*3 20.86 C 3.51354 km/h
362 04-06-2019 00:00:00 21.5059 C 13.89 g/m*3 21.51 C 3.54063 km/h
363 05-06-2019 00:00:00 23.45243 C 14.31 g/m*3 23.45 C 2.78264 km/h
364 06-06-2019 00:00:00 15.94271 C 10.67 g/m*3 15.94 C 8.29931 km/h
365 07-06-2019 00:00:00 15.6809 C 10.21 g/m*3 15.68 C 6.49722 km/h

Maximal/Minimal-Werte vom 08.06.2018 - 07.06.2019

Sensor Min Max Avg
Temp
(Aussen-T/F)
-8.8 °C
22-01-2019  06:35:00
38.4 °C
07-08-2018  18:10:00
11.47 °C
Abs-Feuchte
(Aussen-T/F)
2.93 g/m*3
21-01-2019  00:00:00
16.22 g/m*3
09-06-2018  00:00:00
8.62 g/m*3
Windchill
(Aussen-T/F)
-6.21 C
21-01-2019  00:00:00
27.19 C
26-07-2018  00:00:00
11.1 C

Die Daten stammen von einer Davis Vantage Pro 2 Wetter-Station und werden unter Linux mit der Software wview2wettercgi und aufbereitet. Alle Angaben erfolgen ohne Gewähr für ihre Vollständigkeit oder Richtigkeit.
Kontakt: Rainer Krienke krienke@uni-koblenz.de . Meine Webseiten an der Uni Koblenz oder privat.
Version: $Revision: 0.78 $